sensor_id;sensor_type;location;lat;lon;timestamp;P1;durP1;ratioP1;P2;durP2;ratioP2
44516;SDS011;30223;17.182;-96.766;2022-11-18T00:02:25;2.03;;;1.50;;
44516;SDS011;30223;17.182;-96.766;2022-11-18T00:04:52;2.65;;;1.20;;
44516;SDS011;30223;17.182;-96.766;2022-11-18T00:07:19;2.05;;;1.45;;
44516;SDS011;30223;17.182;-96.766;2022-11-18T00:09:45;3.38;;;2.50;;
44516;SDS011;30223;17.182;-96.766;2022-11-18T00:12:12;1.63;;;1.10;;
44516;SDS011;30223;17.182;-96.766;2022-11-18T00:14:57;3.03;;;1.40;;
44516;SDS011;30223;17.182;-96.766;2022-11-18T00:17:23;3.35;;;1.35;;
44516;SDS011;30223;17.182;-96.766;2022-11-18T00:19:50;2.05;;;1.25;;
44516;SDS011;30223;17.182;-96.766;2022-11-18T00:22:16;2.60;;;1.63;;
44516;SDS011;30223;17.182;-96.766;2022-11-18T00:24:43;2.22;;;1.70;;
44516;SDS011;30223;17.182;-96.766;2022-11-18T00:27:11;3.58;;;1.70;;
44516;SDS011;30223;17.182;-96.766;2022-11-18T00:29:38;9.23;;;3.42;;
44516;SDS011;30223;17.182;-96.766;2022-11-18T00:32:05;13.50;;;2.55;;
44516;SDS011;30223;17.182;-96.766;2022-11-18T00:34:32;4.00;;;1.80;;
44516;SDS011;30223;17.182;-96.766;2022-11-18T00:36:58;4.18;;;1.70;;
44516;SDS011;30223;17.182;-96.766;2022-11-18T00:39:25;3.17;;;1.77;;
44516;SDS011;30223;17.182;-96.766;2022-11-18T00:41:51;2.13;;;1.35;;
44516;SDS011;30223;17.182;-96.766;2022-11-18T00:44:36;2.35;;;1.67;;
44516;SDS011;30223;17.182;-96.766;2022-11-18T00:47:03;4.57;;;1.80;;
44516;SDS011;30223;17.182;-96.766;2022-11-18T00:49:30;2.67;;;1.77;;
44516;SDS011;30223;17.182;-96.766;2022-11-18T00:51:57;3.40;;;1.30;;
44516;SDS011;30223;17.182;-96.766;2022-11-18T00:54:23;5.93;;;1.88;;
44516;SDS011;30223;17.182;-96.766;2022-11-18T00:56:50;3.35;;;1.73;;
44516;SDS011;30223;17.182;-96.766;2022-11-18T00:59:16;9.18;;;3.38;;
44516;SDS011;30223;17.182;-96.766;2022-11-18T01:01:43;5.88;;;1.88;;
44516;SDS011;30223;17.182;-96.766;2022-11-18T01:04:09;2.88;;;1.60;;
44516;SDS011;30223;17.182;-96.766;2022-11-18T01:06:36;7.30;;;1.63;;
44516;SDS011;30223;17.182;-96.766;2022-11-18T01:09:03;2.08;;;1.23;;
44516;SDS011;30223;17.182;-96.766;2022-11-18T01:11:29;5.63;;;2.17;;
44516;SDS011;30223;17.182;-96.766;2022-11-18T01:14:14;5.78;;;2.25;;
44516;SDS011;30223;17.182;-96.766;2022-11-18T01:16:41;6.07;;;1.88;;
44516;SDS011;30223;17.182;-96.766;2022-11-18T01:19:07;1.92;;;1.60;;
44516;SDS011;30223;17.182;-96.766;2022-11-18T01:21:34;3.85;;;2.53;;
44516;SDS011;30223;17.182;-96.766;2022-11-18T01:24:00;6.18;;;1.55;;
44516;SDS011;30223;17.182;-96.766;2022-11-18T01:26:27;5.53;;;2.10;;
44516;SDS011;30223;17.182;-96.766;2022-11-18T01:28:54;4.05;;;2.58;;
44516;SDS011;30223;17.182;-96.766;2022-11-18T01:31:22;8.97;;;2.10;;
44516;SDS011;30223;17.182;-96.766;2022-11-18T01:33:49;3.92;;;1.52;;
44516;SDS011;30223;17.182;-96.766;2022-11-18T01:36:20;3.33;;;2.40;;
44516;SDS011;30223;17.182;-96.766;2022-11-18T01:38:48;3.40;;;2.13;;
44516;SDS011;30223;17.182;-96.766;2022-11-18T01:41:16;4.35;;;2.28;;
44516;SDS011;30223;17.182;-96.766;2022-11-18T01:43:54;6.43;;;2.20;;
44516;SDS011;30223;17.182;-96.766;2022-11-18T01:46:23;11.60;;;4.82;;
44516;SDS011;30223;17.182;-96.766;2022-11-18T01:49:02;11.15;;;4.78;;
44516;SDS011;30223;17.182;-96.766;2022-11-18T01:51:34;8.75;;;3.53;;
44516;SDS011;30223;17.182;-96.766;2022-11-18T01:54:24;13.40;;;3.40;;
44516;SDS011;30223;17.182;-96.766;2022-11-18T01:56:58;5.22;;;3.85;;
44516;SDS011;30223;17.182;-96.766;2022-11-18T01:59:29;6.18;;;2.55;;
44516;SDS011;30223;17.182;-96.766;2022-11-18T02:01:58;5.88;;;2.97;;
44516;SDS011;30223;17.182;-96.766;2022-11-18T02:04:27;4.95;;;2.80;;
44516;SDS011;30223;17.182;-96.766;2022-11-18T02:06:54;5.35;;;2.55;;
44516;SDS011;30223;17.182;-96.766;2022-11-18T02:09:21;9.80;;;2.45;;
44516;SDS011;30223;17.182;-96.766;2022-11-18T02:11:48;5.20;;;2.78;;
44516;SDS011;30223;17.182;-96.766;2022-11-18T02:14:16;3.72;;;2.08;;
44516;SDS011;30223;17.182;-96.766;2022-11-18T02:22:28;2.72;;;2.03;;
44516;SDS011;30223;17.182;-96.766;2022-11-18T02:31:10;6.93;;;2.15;;
44516;SDS011;30223;17.182;-96.766;2022-11-18T02:36:19;5.88;;;1.40;;
44516;SDS011;30223;17.182;-96.766;2022-11-18T02:38:56;1.83;;;1.63;;
44516;SDS011;30223;17.182;-96.766;2022-11-18T02:41:30;3.05;;;1.80;;
44516;SDS011;30223;17.182;-96.766;2022-11-18T02:43:59;8.95;;;1.60;;
44516;SDS011;30223;17.182;-96.766;2022-11-18T02:46:34;1.88;;;1.45;;
44516;SDS011;30223;17.182;-96.766;2022-11-18T02:49:05;3.42;;;1.30;;
44516;SDS011;30223;17.182;-96.766;2022-11-18T02:51:37;2.42;;;1.10;;
44516;SDS011;30223;17.182;-96.766;2022-11-18T02:54:06;4.95;;;1.50;;
44516;SDS011;30223;17.182;-96.766;2022-11-18T02:56:34;2.33;;;1.30;;
44516;SDS011;30223;17.182;-96.766;2022-11-18T02:59:02;1.85;;;1.10;;
44516;SDS011;30223;17.182;-96.766;2022-11-18T03:01:29;1.67;;;1.23;;
44516;SDS011;30223;17.182;-96.766;2022-11-18T03:03:59;2.83;;;1.30;;
44516;SDS011;30223;17.182;-96.766;2022-11-18T03:12:07;2.72;;;1.20;;
44516;SDS011;30223;17.182;-96.766;2022-11-18T03:25:38;2.25;;;1.00;;
44516;SDS011;30223;17.182;-96.766;2022-11-18T03:30:45;1.65;;;1.25;;
44516;SDS011;30223;17.182;-96.766;2022-11-18T03:33:21;2.45;;;1.35;;
44516;SDS011;30223;17.182;-96.766;2022-11-18T03:35:53;3.85;;;1.48;;
44516;SDS011;30223;17.182;-96.766;2022-11-18T03:38:23;1.27;;;1.08;;
44516;SDS011;30223;17.182;-96.766;2022-11-18T03:40:54;2.17;;;1.27;;
44516;SDS011;30223;17.182;-96.766;2022-11-18T03:43:26;3.45;;;2.20;;
44516;SDS011;30223;17.182;-96.766;2022-11-18T03:46:18;5.50;;;1.45;;
44516;SDS011;30223;17.182;-96.766;2022-11-18T03:48:49;2.47;;;1.23;;
44516;SDS011;30223;17.182;-96.766;2022-11-18T03:51:22;1.90;;;1.33;;
44516;SDS011;30223;17.182;-96.766;2022-11-18T03:53:57;1.80;;;1.00;;
44516;SDS011;30223;17.182;-96.766;2022-11-18T03:56:34;3.83;;;1.23;;
44516;SDS011;30223;17.182;-96.766;2022-11-18T03:59:15;1.90;;;1.08;;
44516;SDS011;30223;17.182;-96.766;2022-11-18T04:01:51;2.40;;;1.08;;
44516;SDS011;30223;17.182;-96.766;2022-11-18T04:04:32;1.73;;;1.10;;
44516;SDS011;30223;17.182;-96.766;2022-11-18T04:09:45;1.73;;;1.08;;
44516;SDS011;30223;17.182;-96.766;2022-11-18T04:12:20;3.33;;;1.35;;
44516;SDS011;30223;17.182;-96.766;2022-11-18T04:14:50;1.33;;;0.90;;
44516;SDS011;30223;17.182;-96.766;2022-11-18T04:17:23;1.52;;;0.98;;
44516;SDS011;30223;17.182;-96.766;2022-11-18T04:19:52;1.27;;;1.05;;
44516;SDS011;30223;17.182;-96.766;2022-11-18T04:22:19;2.40;;;0.90;;
44516;SDS011;30223;17.182;-96.766;2022-11-18T04:24:46;2.33;;;1.08;;
44516;SDS011;30223;17.182;-96.766;2022-11-18T04:27:13;1.80;;;1.20;;
44516;SDS011;30223;17.182;-96.766;2022-11-18T04:29:39;1.58;;;0.98;;
44516;SDS011;30223;17.182;-96.766;2022-11-18T04:32:06;1.63;;;1.08;;
44516;SDS011;30223;17.182;-96.766;2022-11-18T04:34:33;2.15;;;1.02;;
44516;SDS011;30223;17.182;-96.766;2022-11-18T04:36:59;2.38;;;1.92;;
44516;SDS011;30223;17.182;-96.766;2022-11-18T04:39:26;3.08;;;1.00;;
44516;SDS011;30223;17.182;-96.766;2022-11-18T04:41:53;1.63;;;1.35;;
44516;SDS011;30223;17.182;-96.766;2022-11-18T04:44:26;2.25;;;1.60;;
44516;SDS011;30223;17.182;-96.766;2022-11-18T04:46:56;2.80;;;1.35;;
44516;SDS011;30223;17.182;-96.766;2022-11-18T04:49:24;1.35;;;0.90;;
44516;SDS011;30223;17.182;-96.766;2022-11-18T04:51:52;1.90;;;1.13;;
44516;SDS011;30223;17.182;-96.766;2022-11-18T04:54:19;3.00;;;1.05;;
44516;SDS011;30223;17.182;-96.766;2022-11-18T04:56:46;2.53;;;1.17;;
44516;SDS011;30223;17.182;-96.766;2022-11-18T04:59:14;1.90;;;1.15;;
44516;SDS011;30223;17.182;-96.766;2022-11-18T05:01:45;1.90;;;1.20;;
44516;SDS011;30223;17.182;-96.766;2022-11-18T05:04:12;1.50;;;1.05;;
44516;SDS011;30223;17.182;-96.766;2022-11-18T05:06:42;1.75;;;1.30;;
44516;SDS011;30223;17.182;-96.766;2022-11-18T05:09:09;1.67;;;1.10;;
44516;SDS011;30223;17.182;-96.766;2022-11-18T05:11:35;2.92;;;1.10;;
44516;SDS011;30223;17.182;-96.766;2022-11-18T05:14:20;1.48;;;1.38;;
44516;SDS011;30223;17.182;-96.766;2022-11-18T05:16:49;1.58;;;1.45;;
44516;SDS011;30223;17.182;-96.766;2022-11-18T05:19:15;1.00;;;0.90;;
44516;SDS011;30223;17.182;-96.766;2022-11-18T05:21:42;2.40;;;1.55;;
44516;SDS011;30223;17.182;-96.766;2022-11-18T05:24:09;3.08;;;1.00;;
44516;SDS011;30223;17.182;-96.766;2022-11-18T05:26:35;1.67;;;1.20;;
44516;SDS011;30223;17.182;-96.766;2022-11-18T05:29:03;1.13;;;0.90;;
44516;SDS011;30223;17.182;-96.766;2022-11-18T05:31:30;2.83;;;1.63;;
44516;SDS011;30223;17.182;-96.766;2022-11-18T05:33:57;1.70;;;1.48;;
44516;SDS011;30223;17.182;-96.766;2022-11-18T05:36:24;2.22;;;2.00;;
44516;SDS011;30223;17.182;-96.766;2022-11-18T05:38:51;1.35;;;0.90;;
44516;SDS011;30223;17.182;-96.766;2022-11-18T05:41:17;4.63;;;1.52;;
44516;SDS011;30223;17.182;-96.766;2022-11-18T05:44:03;3.28;;;1.13;;
44516;SDS011;30223;17.182;-96.766;2022-11-18T05:46:30;1.50;;;0.98;;
44516;SDS011;30223;17.182;-96.766;2022-11-18T05:48:56;1.52;;;1.25;;
44516;SDS011;30223;17.182;-96.766;2022-11-18T05:51:23;2.83;;;0.88;;
44516;SDS011;30223;17.182;-96.766;2022-11-18T05:53:50;2.90;;;1.00;;
44516;SDS011;30223;17.182;-96.766;2022-11-18T05:56:19;1.80;;;1.10;;
44516;SDS011;30223;17.182;-96.766;2022-11-18T05:58:52;1.75;;;1.45;;
44516;SDS011;30223;17.182;-96.766;2022-11-18T06:01:21;1.02;;;0.80;;
44516;SDS011;30223;17.182;-96.766;2022-11-18T06:03:55;2.85;;;1.10;;
44516;SDS011;30223;17.182;-96.766;2022-11-18T06:06:23;2.20;;;1.23;;
44516;SDS011;30223;17.182;-96.766;2022-11-18T06:08:54;1.52;;;0.90;;
44516;SDS011;30223;17.182;-96.766;2022-11-18T06:11:30;4.03;;;1.00;;
44516;SDS011;30223;17.182;-96.766;2022-11-18T06:14:10;3.05;;;1.20;;
44516;SDS011;30223;17.182;-96.766;2022-11-18T06:16:42;3.80;;;1.58;;
44516;SDS011;30223;17.182;-96.766;2022-11-18T06:19:14;2.60;;;1.10;;
44516;SDS011;30223;17.182;-96.766;2022-11-18T06:21:42;2.22;;;1.02;;
44516;SDS011;30223;17.182;-96.766;2022-11-18T06:24:10;1.88;;;1.25;;
44516;SDS011;30223;17.182;-96.766;2022-11-18T06:26:38;4.97;;;1.23;;
44516;SDS011;30223;17.182;-96.766;2022-11-18T06:29:05;4.82;;;1.27;;
44516;SDS011;30223;17.182;-96.766;2022-11-18T06:31:34;1.45;;;0.90;;
44516;SDS011;30223;17.182;-96.766;2022-11-18T06:34:01;5.07;;;1.85;;
44516;SDS011;30223;17.182;-96.766;2022-11-18T06:36:27;1.30;;;1.20;;
44516;SDS011;30223;17.182;-96.766;2022-11-18T06:38:54;2.75;;;0.98;;
44516;SDS011;30223;17.182;-96.766;2022-11-18T06:41:20;3.35;;;1.67;;
44516;SDS011;30223;17.182;-96.766;2022-11-18T06:43:47;3.75;;;1.40;;
44516;SDS011;30223;17.182;-96.766;2022-11-18T06:46:15;2.75;;;1.38;;
44516;SDS011;30223;17.182;-96.766;2022-11-18T06:49:00;4.55;;;1.17;;
44516;SDS011;30223;17.182;-96.766;2022-11-18T06:51:27;2.20;;;1.02;;
44516;SDS011;30223;17.182;-96.766;2022-11-18T06:53:55;3.63;;;1.10;;
44516;SDS011;30223;17.182;-96.766;2022-11-18T06:56:21;2.17;;;1.50;;
44516;SDS011;30223;17.182;-96.766;2022-11-18T06:58:55;2.15;;;0.90;;
44516;SDS011;30223;17.182;-96.766;2022-11-18T07:01:23;4.40;;;1.23;;
44516;SDS011;30223;17.182;-96.766;2022-11-18T07:03:51;1.50;;;1.40;;
44516;SDS011;30223;17.182;-96.766;2022-11-18T07:06:22;7.53;;;1.55;;
44516;SDS011;30223;17.182;-96.766;2022-11-18T07:08:51;4.07;;;1.10;;
44516;SDS011;30223;17.182;-96.766;2022-11-18T07:11:19;1.23;;;1.02;;
44516;SDS011;30223;17.182;-96.766;2022-11-18T07:13:47;2.88;;;1.33;;
44516;SDS011;30223;17.182;-96.766;2022-11-18T07:16:16;1.85;;;0.90;;
44516;SDS011;30223;17.182;-96.766;2022-11-18T07:18:47;1.40;;;1.05;;
44516;SDS011;30223;17.182;-96.766;2022-11-18T07:21:16;2.53;;;1.08;;
44516;SDS011;30223;17.182;-96.766;2022-11-18T07:23:44;1.30;;;0.80;;
44516;SDS011;30223;17.182;-96.766;2022-11-18T07:26:12;1.40;;;0.75;;
44516;SDS011;30223;17.182;-96.766;2022-11-18T07:28:39;2.22;;;1.25;;
44516;SDS011;30223;17.182;-96.766;2022-11-18T07:31:15;2.15;;;1.17;;
44516;SDS011;30223;17.182;-96.766;2022-11-18T07:33:43;1.92;;;1.27;;
44516;SDS011;30223;17.182;-96.766;2022-11-18T07:36:15;1.42;;;0.90;;
44516;SDS011;30223;17.182;-96.766;2022-11-18T07:38:43;1.92;;;0.98;;
44516;SDS011;30223;17.182;-96.766;2022-11-18T07:41:11;2.03;;;1.20;;
44516;SDS011;30223;17.182;-96.766;2022-11-18T07:48:37;4.40;;;1.00;;
44516;SDS011;30223;17.182;-96.766;2022-11-18T07:51:04;1.60;;;1.13;;
44516;SDS011;30223;17.182;-96.766;2022-11-18T07:53:31;1.83;;;1.10;;
44516;SDS011;30223;17.182;-96.766;2022-11-18T07:55:59;1.08;;;0.95;;
44516;SDS011;30223;17.182;-96.766;2022-11-18T07:58:26;1.20;;;1.10;;
44516;SDS011;30223;17.182;-96.766;2022-11-18T08:00:53;1.65;;;0.93;;
44516;SDS011;30223;17.182;-96.766;2022-11-18T08:03:23;1.65;;;0.98;;
44516;SDS011;30223;17.182;-96.766;2022-11-18T08:05:57;2.03;;;1.30;;
44516;SDS011;30223;17.182;-96.766;2022-11-18T08:08:24;1.48;;;0.85;;
44516;SDS011;30223;17.182;-96.766;2022-11-18T08:10:54;3.55;;;1.23;;
44516;SDS011;30223;17.182;-96.766;2022-11-18T08:13:21;1.70;;;1.00;;
44516;SDS011;30223;17.182;-96.766;2022-11-18T08:15:48;1.52;;;1.00;;
44516;SDS011;30223;17.182;-96.766;2022-11-18T08:18:15;7.43;;;1.27;;
44516;SDS011;30223;17.182;-96.766;2022-11-18T08:20:41;1.52;;;0.75;;
44516;SDS011;30223;17.182;-96.766;2022-11-18T08:23:10;3.55;;;1.17;;
44516;SDS011;30223;17.182;-96.766;2022-11-18T08:25:37;0.75;;;0.63;;
44516;SDS011;30223;17.182;-96.766;2022-11-18T08:28:04;5.07;;;1.10;;
44516;SDS011;30223;17.182;-96.766;2022-11-18T08:30:34;1.33;;;0.82;;
44516;SDS011;30223;17.182;-96.766;2022-11-18T08:33:01;0.90;;;0.70;;
44516;SDS011;30223;17.182;-96.766;2022-11-18T08:35:29;2.75;;;0.98;;
44516;SDS011;30223;17.182;-96.766;2022-11-18T08:37:57;2.03;;;1.00;;
44516;SDS011;30223;17.182;-96.766;2022-11-18T08:40:24;1.17;;;1.08;;
44516;SDS011;30223;17.182;-96.766;2022-11-18T08:42:51;1.58;;;1.20;;
44516;SDS011;30223;17.182;-96.766;2022-11-18T08:45:18;1.73;;;1.08;;
44516;SDS011;30223;17.182;-96.766;2022-11-18T08:47:44;2.63;;;1.00;;
44516;SDS011;30223;17.182;-96.766;2022-11-18T08:50:11;2.03;;;1.25;;
44516;SDS011;30223;17.182;-96.766;2022-11-18T08:52:37;1.17;;;0.80;;
44516;SDS011;30223;17.182;-96.766;2022-11-18T08:55:04;1.17;;;0.93;;
44516;SDS011;30223;17.182;-96.766;2022-11-18T08:57:31;1.90;;;1.00;;
44516;SDS011;30223;17.182;-96.766;2022-11-18T08:59:57;1.23;;;0.95;;
44516;SDS011;30223;17.182;-96.766;2022-11-18T09:02:24;1.98;;;1.02;;
44516;SDS011;30223;17.182;-96.766;2022-11-18T09:04:51;1.58;;;1.00;;
44516;SDS011;30223;17.182;-96.766;2022-11-18T09:07:18;0.70;;;0.70;;
44516;SDS011;30223;17.182;-96.766;2022-11-18T09:09:46;1.33;;;0.60;;
44516;SDS011;30223;17.182;-96.766;2022-11-18T09:12:13;2.20;;;1.30;;
44516;SDS011;30223;17.182;-96.766;2022-11-18T09:14:42;1.08;;;0.80;;
44516;SDS011;30223;17.182;-96.766;2022-11-18T09:17:09;1.15;;;1.05;;
44516;SDS011;30223;17.182;-96.766;2022-11-18T09:19:37;1.38;;;1.00;;
44516;SDS011;30223;17.182;-96.766;2022-11-18T09:22:03;1.75;;;1.02;;
44516;SDS011;30223;17.182;-96.766;2022-11-18T09:24:31;1.60;;;1.00;;
44516;SDS011;30223;17.182;-96.766;2022-11-18T09:27:01;1.60;;;0.90;;
44516;SDS011;30223;17.182;-96.766;2022-11-18T09:29:29;1.85;;;1.05;;
44516;SDS011;30223;17.182;-96.766;2022-11-18T09:31:56;2.67;;;0.85;;
44516;SDS011;30223;17.182;-96.766;2022-11-18T09:34:26;2.30;;;0.85;;
44516;SDS011;30223;17.182;-96.766;2022-11-18T09:36:53;1.15;;;0.90;;
44516;SDS011;30223;17.182;-96.766;2022-11-18T09:39:23;1.30;;;0.90;;
44516;SDS011;30223;17.182;-96.766;2022-11-18T09:41:56;1.45;;;0.88;;
44516;SDS011;30223;17.182;-96.766;2022-11-18T09:47:26;3.45;;;1.08;;
44516;SDS011;30223;17.182;-96.766;2022-11-18T09:50:01;2.00;;;1.10;;
44516;SDS011;30223;17.182;-96.766;2022-11-18T09:55:28;1.67;;;0.88;;
44516;SDS011;30223;17.182;-96.766;2022-11-18T09:57:56;1.23;;;1.02;;
44516;SDS011;30223;17.182;-96.766;2022-11-18T10:00:26;1.63;;;0.80;;
44516;SDS011;30223;17.182;-96.766;2022-11-18T10:02:58;2.28;;;1.10;;
44516;SDS011;30223;17.182;-96.766;2022-11-18T10:05:32;0.65;;;0.65;;
44516;SDS011;30223;17.182;-96.766;2022-11-18T10:10:58;1.80;;;0.82;;
44516;SDS011;30223;17.182;-96.766;2022-11-18T10:19:10;0.80;;;0.75;;
44516;SDS011;30223;17.182;-96.766;2022-11-18T10:24:50;1.50;;;1.00;;
44516;SDS011;30223;17.182;-96.766;2022-11-18T10:29:45;1.15;;;0.80;;
44516;SDS011;30223;17.182;-96.766;2022-11-18T10:32:18;0.93;;;0.82;;
44516;SDS011;30223;17.182;-96.766;2022-11-18T10:34:49;1.70;;;1.00;;
44516;SDS011;30223;17.182;-96.766;2022-11-18T10:37:33;2.65;;;0.75;;
44516;SDS011;30223;17.182;-96.766;2022-11-18T10:40:02;0.90;;;0.90;;
44516;SDS011;30223;17.182;-96.766;2022-11-18T10:42:34;1.10;;;1.00;;
44516;SDS011;30223;17.182;-96.766;2022-11-18T10:45:21;1.48;;;1.23;;
44516;SDS011;30223;17.182;-96.766;2022-11-18T10:50:47;1.00;;;0.88;;
44516;SDS011;30223;17.182;-96.766;2022-11-18T10:53:29;1.33;;;1.00;;
44516;SDS011;30223;17.182;-96.766;2022-11-18T10:56:03;1.38;;;0.80;;
44516;SDS011;30223;17.182;-96.766;2022-11-18T10:58:40;0.80;;;0.70;;
44516;SDS011;30223;17.182;-96.766;2022-11-18T11:01:18;1.85;;;1.00;;
44516;SDS011;30223;17.182;-96.766;2022-11-18T11:03:54;0.95;;;0.85;;
44516;SDS011;30223;17.182;-96.766;2022-11-18T11:08:49;1.20;;;0.85;;
44516;SDS011;30223;17.182;-96.766;2022-11-18T11:11:22;1.15;;;0.90;;
44516;SDS011;30223;17.182;-96.766;2022-11-18T11:13:52;1.35;;;0.70;;
44516;SDS011;30223;17.182;-96.766;2022-11-18T11:16:22;0.75;;;0.70;;
44516;SDS011;30223;17.182;-96.766;2022-11-18T11:18:52;0.90;;;0.90;;
44516;SDS011;30223;17.182;-96.766;2022-11-18T11:21:24;1.02;;;0.70;;
44516;SDS011;30223;17.182;-96.766;2022-11-18T11:23:55;1.38;;;0.80;;
44516;SDS011;30223;17.182;-96.766;2022-11-18T11:32:14;0.98;;;0.63;;
44516;SDS011;30223;17.182;-96.766;2022-11-18T11:40:31;1.02;;;0.70;;
44516;SDS011;30223;17.182;-96.766;2022-11-18T11:43:23;0.90;;;0.70;;
44516;SDS011;30223;17.182;-96.766;2022-11-18T11:51:31;0.95;;;0.60;;
44516;SDS011;30223;17.182;-96.766;2022-11-18T11:54:37;0.95;;;0.70;;
44516;SDS011;30223;17.182;-96.766;2022-11-18T12:05:36;1.23;;;0.70;;
44516;SDS011;30223;17.182;-96.766;2022-11-18T12:26:43;1.08;;;0.73;;
44516;SDS011;30223;17.182;-96.766;2022-11-18T12:29:19;1.00;;;0.77;;
44516;SDS011;30223;17.182;-96.766;2022-11-18T12:31:57;1.42;;;0.70;;
44516;SDS011;30223;17.182;-96.766;2022-11-18T12:39:56;0.98;;;0.60;;
44516;SDS011;30223;17.182;-96.766;2022-11-18T12:42:40;0.63;;;0.63;;
44516;SDS011;30223;17.182;-96.766;2022-11-18T12:50:59;0.93;;;0.80;;
44516;SDS011;30223;17.182;-96.766;2022-11-18T12:53:44;1.52;;;0.80;;
44516;SDS011;30223;17.182;-96.766;2022-11-18T12:58:57;0.60;;;0.60;;
44516;SDS011;30223;17.182;-96.766;2022-11-18T13:01:26;0.90;;;0.80;;
44516;SDS011;30223;17.182;-96.766;2022-11-18T13:06:34;1.10;;;0.60;;
44516;SDS011;30223;17.182;-96.766;2022-11-18T13:11:31;0.85;;;0.80;;
44516;SDS011;30223;17.182;-96.766;2022-11-18T13:14:24;1.25;;;0.77;;
44516;SDS011;30223;17.182;-96.766;2022-11-18T13:20:19;0.77;;;0.60;;
44516;SDS011;30223;17.182;-96.766;2022-11-18T13:22:51;2.35;;;1.02;;
44516;SDS011;30223;17.182;-96.766;2022-11-18T13:25:37;0.82;;;0.63;;
44516;SDS011;30223;17.182;-96.766;2022-11-18T13:31:28;1.47;;;0.70;;
44516;SDS011;30223;17.182;-96.766;2022-11-18T13:33:38;1.23;;;0.75;;
44516;SDS011;30223;17.182;-96.766;2022-11-18T13:36:15;0.75;;;0.60;;
44516;SDS011;30223;17.182;-96.766;2022-11-18T13:39:05;0.73;;;0.70;;
44516;SDS011;30223;17.182;-96.766;2022-11-18T13:41:32;1.02;;;0.85;;
44516;SDS011;30223;17.182;-96.766;2022-11-18T13:44:21;1.15;;;0.98;;
44516;SDS011;30223;17.182;-96.766;2022-11-18T13:46:52;0.95;;;0.65;;
44516;SDS011;30223;17.182;-96.766;2022-11-18T13:49:26;1.02;;;0.60;;
44516;SDS011;30223;17.182;-96.766;2022-11-18T13:52:22;1.48;;;1.35;;
44516;SDS011;30223;17.182;-96.766;2022-11-18T13:54:55;1.02;;;0.70;;
44516;SDS011;30223;17.182;-96.766;2022-11-18T13:57:24;1.92;;;0.60;;
44516;SDS011;30223;17.182;-96.766;2022-11-18T13:59:52;1.60;;;0.80;;
44516;SDS011;30223;17.182;-96.766;2022-11-18T14:02:20;0.60;;;0.60;;
44516;SDS011;30223;17.182;-96.766;2022-11-18T14:04:57;0.80;;;0.77;;
44516;SDS011;30223;17.182;-96.766;2022-11-18T14:07:29;4.25;;;1.40;;
44516;SDS011;30223;17.182;-96.766;2022-11-18T14:10:01;1.10;;;0.98;;
44516;SDS011;30223;17.182;-96.766;2022-11-18T14:12:31;1.92;;;1.25;;
44516;SDS011;30223;17.182;-96.766;2022-11-18T14:15:12;5.13;;;1.48;;
44516;SDS011;30223;17.182;-96.766;2022-11-18T14:17:59;2.15;;;1.10;;
44516;SDS011;30223;17.182;-96.766;2022-11-18T14:20:28;3.45;;;1.88;;
44516;SDS011;30223;17.182;-96.766;2022-11-18T14:22:56;2.45;;;1.38;;
44516;SDS011;30223;17.182;-96.766;2022-11-18T14:25:26;3.33;;;1.75;;
44516;SDS011;30223;17.182;-96.766;2022-11-18T14:28:19;3.83;;;1.20;;
44516;SDS011;30223;17.182;-96.766;2022-11-18T14:31:03;2.67;;;1.88;;
44516;SDS011;30223;17.182;-96.766;2022-11-18T14:33:42;3.95;;;2.15;;
44516;SDS011;30223;17.182;-96.766;2022-11-18T14:36:30;2.10;;;1.63;;
44516;SDS011;30223;17.182;-96.766;2022-11-18T14:38:57;4.75;;;1.58;;
44516;SDS011;30223;17.182;-96.766;2022-11-18T14:41:23;6.10;;;1.48;;
44516;SDS011;30223;17.182;-96.766;2022-11-18T14:44:08;2.05;;;1.30;;
44516;SDS011;30223;17.182;-96.766;2022-11-18T14:46:38;8.18;;;2.22;;
44516;SDS011;30223;17.182;-96.766;2022-11-18T14:49:08;6.28;;;1.67;;
44516;SDS011;30223;17.182;-96.766;2022-11-18T14:51:41;2.72;;;1.75;;
44516;SDS011;30223;17.182;-96.766;2022-11-18T14:54:11;3.67;;;2.65;;
44516;SDS011;30223;17.182;-96.766;2022-11-18T14:56:39;5.28;;;2.55;;
44516;SDS011;30223;17.182;-96.766;2022-11-18T14:59:10;3.53;;;1.60;;
44516;SDS011;30223;17.182;-96.766;2022-11-18T15:01:38;1.80;;;1.30;;
44516;SDS011;30223;17.182;-96.766;2022-11-18T15:04:05;3.03;;;1.98;;
44516;SDS011;30223;17.182;-96.766;2022-11-18T15:06:32;3.63;;;1.20;;
44516;SDS011;30223;17.182;-96.766;2022-11-18T15:08:59;2.90;;;1.20;;
44516;SDS011;30223;17.182;-96.766;2022-11-18T15:11:25;2.33;;;1.30;;
44516;SDS011;30223;17.182;-96.766;2022-11-18T15:13:52;2.10;;;1.15;;
44516;SDS011;30223;17.182;-96.766;2022-11-18T15:16:22;3.83;;;1.92;;
44516;SDS011;30223;17.182;-96.766;2022-11-18T15:18:53;1.63;;;1.50;;
44516;SDS011;30223;17.182;-96.766;2022-11-18T15:21:23;3.45;;;1.40;;
44516;SDS011;30223;17.182;-96.766;2022-11-18T15:23:51;2.55;;;1.35;;
44516;SDS011;30223;17.182;-96.766;2022-11-18T15:26:27;2.70;;;1.40;;
44516;SDS011;30223;17.182;-96.766;2022-11-18T15:28:59;2.25;;;1.50;;
44516;SDS011;30223;17.182;-96.766;2022-11-18T15:31:26;2.60;;;1.27;;
44516;SDS011;30223;17.182;-96.766;2022-11-18T15:33:53;3.58;;;1.48;;
44516;SDS011;30223;17.182;-96.766;2022-11-18T15:36:21;3.47;;;1.77;;
44516;SDS011;30223;17.182;-96.766;2022-11-18T15:41:17;1.55;;;1.30;;
44516;SDS011;30223;17.182;-96.766;2022-11-18T15:43:46;3.28;;;1.30;;
44516;SDS011;30223;17.182;-96.766;2022-11-18T15:46:14;2.50;;;1.58;;
44516;SDS011;30223;17.182;-96.766;2022-11-18T15:48:43;2.08;;;1.10;;
44516;SDS011;30223;17.182;-96.766;2022-11-18T15:51:10;4.15;;;2.30;;
44516;SDS011;30223;17.182;-96.766;2022-11-18T15:53:37;2.13;;;1.52;;
44516;SDS011;30223;17.182;-96.766;2022-11-18T15:58:59;2.80;;;1.70;;
44516;SDS011;30223;17.182;-96.766;2022-11-18T16:01:28;2.35;;;1.20;;
44516;SDS011;30223;17.182;-96.766;2022-11-18T16:03:56;3.22;;;1.60;;
44516;SDS011;30223;17.182;-96.766;2022-11-18T16:06:23;1.88;;;1.17;;
44516;SDS011;30223;17.182;-96.766;2022-11-18T16:08:50;3.30;;;1.40;;
44516;SDS011;30223;17.182;-96.766;2022-11-18T16:11:17;5.55;;;1.40;;
44516;SDS011;30223;17.182;-96.766;2022-11-18T16:14:03;1.73;;;1.00;;
44516;SDS011;30223;17.182;-96.766;2022-11-18T16:16:31;2.30;;;1.85;;
44516;SDS011;30223;17.182;-96.766;2022-11-18T16:18:59;4.82;;;1.35;;
44516;SDS011;30223;17.182;-96.766;2022-11-18T16:21:31;1.58;;;1.10;;
44516;SDS011;30223;17.182;-96.766;2022-11-18T16:24:00;1.70;;;1.00;;
44516;SDS011;30223;17.182;-96.766;2022-11-18T16:28:55;5.45;;;1.55;;
44516;SDS011;30223;17.182;-96.766;2022-11-18T16:31:22;1.92;;;1.08;;
44516;SDS011;30223;17.182;-96.766;2022-11-18T16:34:13;1.48;;;1.17;;
44516;SDS011;30223;17.182;-96.766;2022-11-18T16:36:44;4.45;;;1.15;;
44516;SDS011;30223;17.182;-96.766;2022-11-18T16:39:12;3.85;;;1.20;;
44516;SDS011;30223;17.182;-96.766;2022-11-18T16:41:43;1.90;;;0.85;;
44516;SDS011;30223;17.182;-96.766;2022-11-18T16:44:12;1.50;;;1.13;;
44516;SDS011;30223;17.182;-96.766;2022-11-18T16:46:41;2.05;;;1.10;;
44516;SDS011;30223;17.182;-96.766;2022-11-18T16:49:12;2.03;;;0.93;;
44516;SDS011;30223;17.182;-96.766;2022-11-18T16:51:41;1.65;;;1.02;;
44516;SDS011;30223;17.182;-96.766;2022-11-18T16:54:19;1.05;;;0.77;;
44516;SDS011;30223;17.182;-96.766;2022-11-18T16:56:47;1.00;;;0.90;;
44516;SDS011;30223;17.182;-96.766;2022-11-18T16:59:16;1.83;;;1.40;;
44516;SDS011;30223;17.182;-96.766;2022-11-18T17:01:48;6.63;;;1.15;;
44516;SDS011;30223;17.182;-96.766;2022-11-18T17:04:17;2.03;;;1.23;;
44516;SDS011;30223;17.182;-96.766;2022-11-18T17:06:44;3.33;;;2.13;;